Latest Weather Observations for Hay Point

IDQ60801

Issued at 3:02 am EST Wednesday 17 January 2018 (issued every 30 minutes, with the page automatically refreshed every 10 minutes)

About weather observations | Map of weather stations | Latest weather observations for QLD | Other Formats
Station Details ID: 033317 Name: HAY POINT Lat: -21.29 Lon: 149.30 Height: 7.0 m
Data from the previous 72 hours. | See also: Recent months for locations in Queensland
Date/Time
EST
Temp
°C
App
Temp
°C
Dew
Point
°C
Rel
Hum
%
Delta-T
°C
Wind Press
QNH
hPa
Press
MSL
hPa
Rain since
9am
mm
Dir  Spd
km/h
Gust
km/h
Spd
kts
Gust
kts
17/03:00am - - - - - ESE 33 39 18 21 - - -
17/02:30am - - - - - E 32 39 17 21 - - -
17/02:00am - - - - - E 35 43 19 23 - - -
17/01:30am - - - - - E 35 41 19 22 - - -
17/01:00am - - - - - E 37 46 20 25 - - -
17/12:30am - - - - - ESE 35 41 19 22 - - -
17/12:00am - - - - - E 37 43 20 23 - - -
 
Date/Time
EST
Temp
°C
App
Temp
°C
Dew
Point
°C
Rel
Hum
%
Delta-T
°C
Wind Press
QNH
hPa
Press
MSL
hPa
Rain since
9am
mm
Dir  Spd
km/h
Gust
km/h
Spd
kts
Gust
kts
16/11:30pm - - - - - E 37 46 20 25 - - -
16/11:00pm - - - - - E 37 44 20 24 - - -
16/10:30pm - - - - - E 35 44 19 24 - - -
16/10:00pm - - - - - E 33 41 18 22 - - -
16/09:30pm - - - - - E 35 44 19 24 - - -
16/09:00pm - - - - - E 37 48 20 26 - - -
16/08:30pm - - - - - E 35 46 19 25 - - -
16/08:00pm - - - - - E 37 44 20 24 - - -
16/07:30pm - - - - - E 35 41 19 22 - - -
16/07:00pm - - - - - ESE 35 41 19 22 - - -
16/06:30pm - - - - - E 33 41 18 22 - - -
16/06:00pm - - - - - E 33 41 18 22 - - -
16/05:30pm - - - - - E 35 39 19 21 - - -
16/05:00pm - - - - - E 33 37 18 20 - - -
16/04:30pm - - - - - E 32 37 17 20 - - -
16/04:00pm - - - - - E 33 39 18 21 - - -
16/03:30pm - - - - - E 33 39 18 21 - - -
16/03:00pm - - - - - ESE 32 37 17 20 - - -
16/02:30pm - - - - - E 33 39 18 21 - - -
16/02:00pm - - - - - E 32 37 17 20 - - -
16/01:30pm - - - - - ESE 33 37 18 20 - - -
16/01:00pm - - - - - ESE 33 41 18 22 - - -
16/12:30pm - - - - - ESE 30 39 16 21 - - -
16/12:00pm - - - - - ESE 32 39 17 21 - - -
16/11:30am - - - - - ESE 32 39 17 21 - - -
16/11:00am - - - - - ESE 32 39 17 21 - - -
16/10:30am - - - - - ESE 32 37 17 20 - - -
16/10:00am - - - - - ESE 33 39 18 21 - - -
16/09:30am - - - - - ESE 35 41 19 22 - - -
16/09:00am - - - - - ESE 35 41 19 22 - - -
16/08:30am - - - - - ESE 35 39 19 21 - - -
16/08:00am - - - - - ESE 33 41 18 22 - - -
16/07:30am - - - - - ESE 32 41 17 22 - - -
16/07:00am - - - - - ESE 33 39 18 21 - - -
16/06:30am - - - - - ESE 33 41 18 22 - - -
16/06:00am - - - - - ESE 33 39 18 21 - - -
16/05:30am - - - - - E 35 43 19 23 - - -
16/05:00am - - - - - ESE 35 41 19 22 - - -
16/04:30am - - - - - ESE 33 41 18 22 - - -
16/04:00am - - - - - ESE 33 43 18 23 - - -
16/03:30am - - - - - ESE 32 39 17 21 - - -
16/03:00am - - - - - E 37 41 20 22 - - -
16/02:30am - - - - - E 37 44 20 24 - - -
16/02:00am - - - - - E 39 44 21 24 - - -
16/01:30am - - - - - E 33 39 18 21 - - -
16/01:00am - - - - - E 35 43 19 23 - - -
16/12:30am - - - - - E 37 44 20 24 - - -
16/12:00am - - - - - E 35 43 19 23 - - -
 
Date/Time
EST
Temp
°C
App
Temp
°C
Dew
Point
°C
Rel
Hum
%
Delta-T
°C
Wind Press
QNH
hPa
Press
MSL
hPa
Rain since
9am
mm
Dir  Spd
km/h
Gust
km/h
Spd
kts
Gust
kts
15/11:30pm - - - - - E 37 43 20 23 - - -
15/11:00pm - - - - - E 37 44 20 24 - - -
15/10:30pm - - - - - E 35 44 19 24 - - -
15/10:00pm - - - - - ESE 37 43 20 23 - - -
15/09:30pm - - - - - ESE 39 46 21 25 - - -
15/09:00pm - - - - - ESE 37 44 20 24 - - -
15/08:30pm - - - - - ESE 39 48 21 26 - - -
15/08:00pm - - - - - ESE 39 50 21 27 - - -
15/07:30pm - - - - - ESE 39 44 21 24 - - -
15/07:00pm - - - - - ESE 39 52 21 28 - - -
15/06:30pm - - - - - ESE 44 52 24 28 - - -
15/06:00pm - - - - - ESE 39 50 21 27 - - -
15/05:30pm - - - - - ESE 39 50 21 27 - - -
15/05:00pm - - - - - ESE 37 48 20 26 - - -
15/04:30pm - - - - - ESE 37 48 20 26 - - -
15/04:00pm - - - - - ESE 39 50 21 27 - - -
15/03:30pm - - - - - ESE 39 52 21 28 - - -
15/03:00pm - - - - - ESE 41 56 22 30 - - -
15/02:30pm - - - - - ESE 41 52 22 28 - - -
15/02:00pm - - - - - SE 37 50 20 27 - - -
15/01:30pm - - - - - SE 37 52 20 28 - - -
15/01:00pm - - - - - SE 43 54 23 29 - - -
15/12:30pm - - - - - SE 44 54 24 29 - - -
15/12:00pm - - - - - SE 44 57 24 31 - - -
15/11:30am - - - - - SE 50 61 27 33 - - -
15/11:00am - - - - - SE 46 57 25 31 - - -
15/10:30am - - - - - SE 48 57 26 31 - - -
15/10:00am - - - - - SSE 43 56 23 30 - - -
15/09:30am - - - - - SSE 41 54 22 29 - - -
15/09:20am - - - - - SSE 44 57 24 31 - - -
15/09:00am - - - - - SSE 32 37 17 20 - - -
15/08:30am - - - - - SSE 28 33 15 18 - - -
15/08:00am - - - - - SSE 28 32 15 17 - - -
15/07:56am - - - - - SSE 24 32 13 17 - - -
15/07:30am - - - - - S 9 11 5 6 - - -
15/07:00am - - - - - SSW 9 11 5 6 - - -
15/06:30am - - - - - WSW 6 7 3 4 - - -
15/06:00am - - - - - SSW 6 9 3 5 - - -
15/05:30am - - - - - SSW 9 11 5 6 - - -
15/05:00am - - - - - SSW 9 13 5 7 - - -
15/04:30am - - - - - SSW 13 17 7 9 - - -
15/04:00am - - - - - SSW 9 19 5 10 - - -
15/03:30am - - - - - SSW 20 30 11 16 - - -
15/03:00am - - - - - WNW 9 11 5 6 - - -
15/02:30am - - - - - NNW 19 24 10 13 - - -
15/02:00am - - - - - NW 24 32 13 17 - - -
15/01:30am - - - - - NW 13 20 7 11 - - -
15/01:00am - - - - - NW 19 22 10 12 - - -
15/12:30am - - - - - WNW 13 15 7 8 - - -
15/12:00am - - - - - NW 20 24 11 13 - - -
 
Date/Time
EST
Temp
°C
App
Temp
°C
Dew
Point
°C
Rel
Hum
%
Delta-T
°C
Wind Press
QNH
hPa
Press
MSL
hPa
Rain since
9am
mm
Dir  Spd
km/h
Gust
km/h
Spd
kts
Gust
kts
14/11:30pm - - - - - NNW 30 35 16 19 - - -
14/11:00pm - - - - - N 32 33 17 18 - - -
14/10:30pm - - - - - N 24 30 13 16 - - -
14/10:00pm - - - - - N 19 26 10 14 - - -
14/09:30pm - - - - - SSW 22 33 12 18 - - -
14/09:00pm - - - - - N 32 37 17 20 - - -
14/08:30pm - - - - - N 35 43 19 23 - - -
14/08:00pm - - - - - N 35 41 19 22 - - -
14/07:30pm - - - - - N 37 44 20 24 - - -
14/07:00pm - - - - - N 39 48 21 26 - - -
14/06:30pm - - - - - N 37 43 20 23 - - -
14/06:00pm - - - - - N 39 46 21 25 - - -
14/05:30pm - - - - - N 39 43 21 23 - - -
14/05:00pm - - - - - N 35 43 19 23 - - -
14/04:30pm - - - - - N 35 43 19 23 - - -
14/04:00pm - - - - - N 39 44 21 24 - - -
14/03:30pm - - - - - N 33 39 18 21 - - -
14/03:00pm - - - - - N 32 37 17 20 - - -
14/02:30pm - - - - - N 35 39 19 21 - - -
14/02:00pm - - - - - N 37 43 20 23 - - -
14/01:30pm - - - - - N 37 43 20 23 - - -
14/01:00pm - - - - - N 37 44 20 24 - - -
14/12:30pm - - - - - N 37 44 20 24 - - -
14/12:00pm - - - - - N 35 39 19 21 - - -
14/11:30am - - - - - N 32 39 17 21 - - -
14/11:00am - - - - - N 32 37 17 20 - - -
14/10:30am - - - - - NNW 24 32 13 17 - - -
14/10:00am - - - - - NNW 28 33 15 18 - - -
14/09:30am - - - - - NNW 26 30 14 16 - - -
14/09:00am - - - - - NNW 26 30 14 16 - - -
14/08:30am - - - - - NW 24 33 13 18 - - -
14/08:00am - - - - - NW 22 30 12 16 - - -
14/07:30am - - - - - NW 19 26 10 14 - - -
14/07:00am - - - - - NW 17 26 9 14 - - -
14/06:30am - - - - - WNW 15 19 8 10 - - -
14/06:00am - - - - - NW 13 17 7 9 - - -
14/05:30am - - - - - WNW 15 17 8 9 - - -
14/05:00am - - - - - WNW 13 15 7 8 - - -
14/04:30am - - - - - WNW 17 22 9 12 - - -
14/04:00am - - - - - NW 19 26 10 14 - - -
14/03:30am - - - - - NW 19 22 10 12 - - -

Other Formats:

Comma delimited format used in spreadsheet applications
http://www.bom.gov.au/fwo/IDQ60801/IDQ60801.99367.axf

JavaScript Object Notation format (JSON) in row-major order
http://www.bom.gov.au/fwo/IDQ60801/IDQ60801.99367.json